Columbiaville, Michigan
Current Conditions -  °F | °C
As of 3:33 PM on Friday 28 Nov 2014 (Local Time) from KD95 Reporting Station
Overcast Overcast  
Wind Chill: 19°   Ceiling: 4800
Heat Index: 27°   Visibility: 10mi
Dew Point: 15°   Wind: 7mph
Humidity: 61%   Direction: 190°S
Pressure: 30.16"   Gusts: NA
Location:  43.16°N, 83.41°W
Report Text: KD95 282033Z AUTO 19006KT 160V220 10SM SCT031 SCT040 OVC048 M03/M10 A3016 RMK AO2 T10301096
Loading
Personal Weather Stations






























Interactive Weather Map New forecast layout! Learn more

10-Day Weather Forecast

Advertisements
Track Severe Weather on mobile